Airfield :







YOU CAN JOIN US ON...

 
LOGIN :

Register | Disclaimer

   EN    FR    IT 

 









Legend :    VFR   Marginal VFR   IFR   Intensive IFR   Very Intensive IFR
Visi :
Ceiling :
>= 8 km
>= 3000ft
5 to 8 km
1000 to 3000 ft
1500m to 5 km
500 to 1000 ft
800 to 1500m
200 to 500 ft
< 800m
< 200 ft
Symbols :   Thunderstorms  Fog  Heavy snow  Heavy precipitations  Wind > 20 kt






- Airport Elevation : 550 ft
- IATA code : MNI


TRPG - John A. Osborne

CURRENT METAR :
  • 051600Z 10016KT 9999 FEW020 29/24 Q1017

EXPIRED METARs :
  • 051500Z 11015KT 9999 VCSH SCT018 28/24 Q1018 RMK VCSH-S
  • 051400Z 11016KT 9999 SCT018 28/24 Q1018

TAF TAF TRPG
Valid from the 05 at 12:00 until the 06 at 12:00 UTC


051100Z 0512/0612 11012KT 9999 SCT021
PROB30
TEMPO 0512/0515 SHRA



MET'MAP, your aeronautical weather chart ! - Copyright ORBIFLY December 2007 - Disclaimer

ORBIFLY MET'MAP TEAM :

Programming & Development : Alexandra Zaïnal
Concept & original design : Baudouin d'Aumeries
Assistance for programming : Marc-Olivier Méhu
Technical & hardware support : Manuel Goepfert

Contact : metmap@orbifly.com




SOURCES & CREDITS :

   NOAA